Time;durP1;ratioP1;P1;durP2;ratioP2;P2;SDS_P1;SDS_P2;PMS_P1;PMS_P2;Temp;Humidity;BMP_temperature;BMP_pressure;BME280_temperature;BME280_humidity;BME280_pressure;Samples;Min_cycle;Max_cycle;Signal;HPM_P1;HPM_P2
2023/03/30 00:02:55;;;;;;;33.70;17.80;;;;;;;5.11;53.86;99156.92;223492;181;138940;-71
2023/03/30 00:07:59;;;;;;;36.90;17.80;;;;;;;5.15;54.04;99153.06;223535;181;137202;-72
2023/03/30 00:19:27;;;;;;;28.50;17.50;;;;;;;5.30;54.18;99145.65;223557;181;138774;-72
2023/03/30 00:24:31;;;;;;;41.50;18.50;;;;;;;5.35;54.47;99141.91;223561;214;140073;-71
2023/03/30 00:29:34;;;;;;;36.70;18.60;;;;;;;5.38;54.68;99139.69;223574;182;147318;-73
2023/03/30 00:34:37;;;;;;;39.50;19.70;;;;;;;5.42;54.90;99139.52;223459;182;138585;-74
2023/03/30 00:39:41;;;;;;;36.10;19.80;;;;;;;5.44;54.87;99129.42;222452;182;138740;-75
2023/03/30 00:45:19;;;;;;;36.80;19.20;;;;;;;5.41;54.93;99122.52;223363;192;146855;-74
2023/03/30 00:50:28;;;;;;;39.60;18.40;;;;;;;5.43;55.18;99122.77;223478;182;138554;-73
2023/03/30 00:55:35;;;;;;;38.40;20.30;;;;;;;5.44;55.46;99113.92;223534;182;137436;-73
2023/03/30 01:00:39;;;;;;;38.30;18.50;;;;;;;5.51;55.51;99115.25;223515;182;147933;-72
2023/03/30 01:05:44;;;;;;;40.90;18.70;;;;;;;5.53;55.46;99109.88;223262;186;138278;-74
2023/03/30 01:10:47;;;;;;;34.80;20.40;;;;;;;5.54;55.44;99109.16;223693;182;137082;-73
2023/03/30 01:16:24;;;;;;;44.60;22.20;;;;;;;5.54;55.49;99100.70;223497;181;149985;-73
2023/03/30 01:22:03;;;;;;;40.50;21.50;;;;;;;5.52;55.59;99093.91;223471;187;139063;-73
2023/03/30 01:27:31;;;;;;;36.70;20.60;;;;;;;5.52;55.74;99090.58;223542;182;137030;-73
2023/03/30 01:32:50;;;;;;;39.50;20.80;;;;;;;5.50;55.70;99087.66;223536;203;146895;-74
2023/03/30 01:37:57;;;;;;;37.70;19.50;;;;;;;5.48;56.07;99083.87;223557;181;138431;-74
2023/03/30 01:43:14;;;;;;;41.20;20.60;;;;;;;5.51;55.84;99082.36;223495;182;136993;-74
2023/03/30 01:48:44;;;;;;;34.50;17.00;;;;;;;5.52;55.31;99086.17;223589;182;147585;-74
2023/03/30 01:54:14;;;;;;;17.20;9.10;;;;;;;5.67;53.32;99083.97;223469;181;139049;-74
2023/03/30 01:59:32;;;;;;;15.10;8.00;;;;;;;5.88;51.81;99078.36;223207;193;136632;-75
2023/03/30 02:04:37;;;;;;;;;;;;;;;6.07;50.72;99074.03;223763;204;147568;-75
2023/03/30 02:09:44;;;;;;;14.00;7.20;;;;;;;6.23;50.05;99071.61;223467;182;138831;-72
2023/03/30 02:14:48;;;;;;;15.40;7.40;;;;;;;6.44;49.43;99070.11;223621;182;136518;-72
2023/03/30 02:19:55;;;;;;;13.60;6.90;;;;;;;6.59;48.71;99068.22;223538;182;148925;-72
2023/03/30 02:24:59;;;;;;;;;;;;;;;6.69;48.21;99061.23;223429;182;139443;-73
2023/03/30 02:30:04;;;;;;;15.40;6.90;;;;;;;6.71;48.12;99056.55;223540;182;132279;-72
2023/03/30 02:35:10;;;;;;;15.20;7.00;;;;;;;6.77;47.76;99054.01;223720;182;148249;-71
2023/03/30 02:40:39;;;;;;;65.40;44.00;;;;;;;6.83;47.68;99052.45;223477;182;138045;-74
2023/03/30 02:46:24;;;;;;;54.70;33.10;;;;;;;6.92;47.50;99048.71;223464;182;137101;-73
2023/03/30 02:51:45;;;;;;;15.60;8.10;;;;;;;6.97;47.37;99040.36;223371;186;147327;-69
2023/03/30 02:56:59;;;;;;;13.50;6.40;;;;;;;7.02;47.13;99031.14;223483;183;140538;-72
2023/03/30 03:02:26;;;;;;;13.30;6.10;;;;;;;7.06;46.96;99033.20;223529;181;136731;-73
2023/03/30 03:07:37;;;;;;;13.40;6.20;;;;;;;7.11;46.86;99030.33;223470;181;147358;-72
2023/03/30 03:12:44;;;;;;;18.60;6.60;;;;;;;7.18;46.68;99024.55;223423;181;138682;-71
2023/03/30 03:17:49;;;;;;;13.70;7.90;;;;;;;7.24;46.82;99019.84;223669;191;139680;-72
2023/03/30 03:22:52;;;;;;;13.10;5.90;;;;;;;7.28;46.63;99020.14;223630;191;149131;-72
2023/03/30 03:27:56;;;;;;;12.10;6.30;;;;;;;7.21;46.50;99013.99;223497;182;140385;-72
2023/03/30 03:33:02;;;;;;;13.70;6.40;;;;;;;7.18;46.46;99006.17;223495;183;137030;-72
2023/03/30 03:38:06;;;;;;;11.80;6.30;;;;;;;7.16;46.63;99000.45;223418;182;148350;-72
2023/03/30 03:43:10;;;;;;;14.20;7.10;;;;;;;7.15;46.69;98991.71;223362;182;139018;-71
2023/03/30 03:48:15;;;;;;;75.80;44.60;;;;;;;7.13;47.06;98987.39;223504;181;137274;-77
2023/03/30 03:53:23;;;;;;;19.30;9.70;;;;;;;7.21;47.09;98979.55;223206;216;147205;-74
2023/03/30 03:58:28;;;;;;;20.70;7.60;;;;;;;7.24;47.06;98976.62;223454;183;138573;-72
2023/03/30 04:03:32;;;;;;;18.90;7.30;;;;;;;7.19;47.39;98973.31;223575;183;137913;-72
2023/03/30 04:08:36;;;;;;;19.70;7.20;;;;;;;7.17;47.12;98970.08;223521;182;147625;-72
2023/03/30 04:13:53;;;;;;;18.20;7.70;;;;;;;7.13;47.51;98961.09;223468;182;138468;-72
2023/03/30 04:19:14;;;;;;;17.40;7.40;;;;;;;7.08;47.78;98956.22;223467;182;136857;-72
2023/03/30 04:24:35;;;;;;;19.80;7.00;;;;;;;7.03;48.05;98955.23;223239;181;148486;-73
2023/03/30 04:30:12;;;;;;;24.10;8.30;;;;;;;7.00;48.28;98950.64;222395;182;138855;-72
2023/03/30 04:35:34;;;;;;;18.70;8.10;;;;;;;6.95;48.99;98943.77;222619;194;136243;-74
2023/03/30 04:40:51;;;;;;;23.10;8.80;;;;;;;6.93;49.62;98934.91;223505;182;147189;-74
2023/03/30 04:46:31;;;;;;;31.40;9.00;;;;;;;6.95;49.37;98927.21;223457;183;138858;-74
2023/03/30 04:51:57;;;;;;;13.60;7.00;;;;;;;7.00;49.26;98932.79;223524;184;136801;-73
2023/03/30 04:57:29;;;;;;;21.80;8.10;;;;;;;7.10;49.02;98923.50;223493;181;147042;-73
2023/03/30 05:02:41;;;;;;;17.20;6.90;;;;;;;7.25;48.89;98916.71;223389;182;139554;-73
2023/03/30 05:08:03;;;;;;;16.50;6.70;;;;;;;7.37;48.81;98916.85;223427;182;136903;-73
2023/03/30 05:13:27;;;;;;;18.70;7.20;;;;;;;7.42;48.77;98919.94;223385;182;147476;-73
2023/03/30 05:19:00;;;;;;;14.70;6.90;;;;;;;7.48;48.89;98917.85;223383;204;138845;-73
2023/03/30 05:24:31;;;;;;;19.80;6.90;;;;;;;7.54;49.22;98913.86;223411;182;136452;-73
2023/03/30 05:29:58;;;;;;;17.60;6.20;;;;;;;7.63;49.31;98906.13;223444;198;146128;-73
2023/03/30 05:35:39;;;;;;;13.00;5.30;;;;;;;7.79;49.24;98905.09;222955;184;138422;-74
2023/03/30 05:41:08;;;;;;;19.30;6.30;;;;;;;7.90;49.25;98901.04;223481;195;137245;-74
2023/03/30 05:46:17;;;;;;;16.80;6.70;;;;;;;8.01;49.20;98903.39;223436;183;146835;-74
2023/03/30 05:51:26;;;;;;;18.90;7.60;;;;;;;8.15;49.12;98897.01;223441;182;138403;-75
2023/03/30 05:56:48;;;;;;;14.10;6.50;;;;;;;8.20;49.17;98894.77;223520;183;136475;-75
2023/03/30 06:02:11;;;;;;;13.90;7.30;;;;;;;8.19;49.39;98892.72;222438;183;146772;-75
2023/03/30 06:07:16;;;;;;;13.90;7.30;;;;;;;8.30;49.28;98890.70;222873;181;139361;-74
2023/03/30 06:12:20;;;;;;;15.20;7.40;;;;;;;8.41;49.28;98887.12;219981;182;137322;-74
2023/03/30 06:17:24;;;;;;;14.10;7.80;;;;;;;8.50;49.11;98880.25;223561;182;147643;-72
2023/03/30 06:22:28;;;;;;;16.00;7.20;;;;;;;8.58;49.24;98876.61;223521;187;138916;-72
2023/03/30 06:27:53;;;;;;;19.80;7.70;;;;;;;8.68;49.20;98871.79;223510;182;137104;-72
2023/03/30 06:32:58;;;;;;;20.60;8.70;;;;;;;8.73;49.49;98869.77;223560;183;147434;-72
2023/03/30 06:38:20;;;;;;;20.00;8.40;;;;;;;8.77;49.59;98863.85;223209;182;138488;-72
2023/03/30 06:43:25;;;;;;;19.20;8.30;;;;;;;8.85;49.79;98858.83;223347;206;137944;-72
2023/03/30 06:48:47;;;;;;;21.00;6.60;;;;;;;8.92;50.03;98859.63;223473;183;147348;-71
2023/03/30 06:54:12;;;;;;;18.70;6.50;;;;;;;9.07;49.97;98852.58;223378;192;139302;-71
2023/03/30 06:59:26;;;;;;;14.40;5.30;;;;;;;9.22;49.97;98848.86;223545;181;136525;-71
2023/03/30 07:04:52;;;;;;;15.30;5.80;;;;;;;9.38;49.74;98843.79;223514;182;147610;-72
2023/03/30 07:10:09;;;;;;;13.10;5.50;;;;;;;9.49;49.42;98844.20;223474;182;138756;-72
2023/03/30 07:15:14;;;;;;;13.80;5.30;;;;;;;9.61;49.24;98840.08;223423;182;136511;-71
2023/03/30 07:20:19;;;;;;;14.30;5.10;;;;;;;9.68;49.13;98830.30;223398;182;148664;-71
2023/03/30 07:25:43;;;;;;;14.50;4.70;;;;;;;9.81;48.97;98831.98;223410;181;139151;-72
2023/03/30 07:31:09;;;;;;;13.70;4.90;;;;;;;9.98;48.85;98827.16;223473;182;137981;-71
2023/03/30 07:36:14;;;;;;;13.10;4.90;;;;;;;10.15;48.94;98820.08;223496;181;147322;-71
2023/03/30 07:41:18;;;;;;;9.80;5.10;;;;;;;10.36;48.91;98813.45;223427;183;138490;-71
2023/03/30 07:46:25;;;;;;;12.40;4.60;;;;;;;10.50;48.42;98806.54;223451;183;136865;-71
2023/03/30 07:51:29;;;;;;;10.50;3.90;;;;;;;10.68;48.16;98805.50;223487;182;146973;-72
2023/03/30 07:56:43;;;;;;;8.50;3.70;;;;;;;10.90;47.71;98800.80;223376;181;139346;-72
2023/03/30 08:01:49;;;;;;;7.80;3.40;;;;;;;11.11;47.41;98789.30;223427;182;137548;-72
2023/03/30 08:07:03;;;;;;;;;;;;;;;11.28;47.67;98795.41;223627;181;149962;-72
2023/03/30 08:12:07;;;;;;;7.00;3.20;;;;;;;11.47;47.33;98776.83;222909;182;138344;-74
2023/03/30 08:17:11;;;;;;;7.80;3.10;;;;;;;11.66;46.40;98764.33;223554;188;136748;-72
2023/03/30 08:22:15;;;;;;;5.40;2.80;;;;;;;11.79;46.23;98753.94;223474;181;147151;-72
2023/03/30 08:27:19;;;;;;;8.30;2.80;;;;;;;11.91;46.24;98746.95;223449;188;138098;-73
2023/03/30 08:32:22;;;;;;;8.20;2.70;;;;;;;11.98;45.83;98757.08;223441;182;136580;-72
2023/03/30 08:37:26;;;;;;;7.50;3.20;;;;;;;12.07;45.93;98760.33;223047;182;147526;-72
2023/03/30 08:42:37;;;;;;;7.80;2.80;;;;;;;12.18;45.46;98758.85;223383;181;138879;-73
2023/03/30 08:47:44;;;;;;;440.00;314.80;;;;;;;12.24;45.40;98755.36;223478;205;137256;-72
2023/03/30 08:52:51;;;;;;;13.50;8.10;;;;;;;12.32;45.39;98751.04;223214;183;147531;-72
2023/03/30 08:58:08;;;;;;;7.00;2.90;;;;;;;12.37;44.90;98751.21;223392;182;138108;-72
2023/03/30 09:03:41;;;;;;;9.50;2.90;;;;;;;12.45;44.72;98742.60;223472;183;137689;-71
2023/03/30 09:08:46;;;;;;;4.40;2.70;;;;;;;12.56;44.69;98739.98;223357;182;146835;-71
2023/03/30 09:13:51;;;;;;;5.90;2.60;;;;;;;12.70;44.54;98739.84;223441;182;138093;-72
2023/03/30 09:18:56;;;;;;;6.60;2.40;;;;;;;12.83;44.12;98736.36;223383;182;137339;-71
2023/03/30 09:24:16;;;;;;;5.40;2.60;;;;;;;12.97;43.81;98726.73;223384;182;148047;-71
2023/03/30 09:29:30;;;;;;;6.30;2.50;;;;;;;13.09;43.67;98717.66;223410;187;144009;-72
2023/03/30 09:34:44;;;;;;;3.70;2.30;;;;;;;13.15;43.30;98709.48;223533;182;137374;-72
2023/03/30 09:39:49;;;;;;;5.70;2.40;;;;;;;13.20;43.20;98693.75;223462;182;148275;-72
2023/03/30 09:45:19;;;;;;;4.40;2.50;;;;;;;13.31;42.91;98685.48;223428;182;138148;-74
2023/03/30 09:50:27;;;;;;;28.80;19.90;;;;;;;13.46;43.17;98665.17;223492;182;137107;-71
2023/03/30 09:55:36;;;;;;;5.00;2.80;;;;;;;13.68;43.11;98657.89;222293;181;147198;-74
2023/03/30 10:00:39;;;;;;;5.80;2.80;;;;;;;14.00;42.89;98658.14;223406;181;139034;-73
2023/03/30 10:05:43;;;;;;;4.50;2.20;;;;;;;14.21;42.08;98658.06;222497;193;137044;-73
2023/03/30 10:10:54;;;;;;;10.50;2.50;;;;;;;14.28;41.79;98644.29;223474;182;147120;-73
2023/03/30 10:16:04;;;;;;;4.70;1.90;;;;;;;14.30;41.72;98638.40;223466;183;138562;-73
2023/03/30 10:21:26;;;;;;;6.50;1.80;;;;;;;14.38;41.59;98631.03;223453;182;137205;-73
2023/03/30 10:26:36;;;;;;;7.00;1.80;;;;;;;14.55;41.52;98626.27;222822;183;148788;-72
2023/03/30 10:31:46;;;;;;;5.50;1.90;;;;;;;14.72;41.01;98603.97;223318;183;138299;-73
2023/03/30 10:36:53;;;;;;;3.70;1.70;;;;;;;14.98;41.07;98592.59;223092;193;137719;-74
2023/03/30 10:42:01;;;;;;;2.40;1.70;;;;;;;15.12;40.68;98588.63;223483;182;147115;-73
2023/03/30 10:47:10;;;;;;;6.60;2.50;;;;;;;15.09;40.41;98586.02;223502;182;139047;-73
2023/03/30 10:52:29;;;;;;;5.70;1.80;;;;;;;15.02;40.33;98577.65;223445;183;137032;-72
2023/03/30 10:57:47;;;;;;;3.20;1.70;;;;;;;15.03;40.47;98558.38;223427;192;146803;-72
2023/03/30 11:03:00;;;;;;;5.40;1.80;;;;;;;15.08;40.43;98557.92;223428;181;138755;-72
2023/03/30 11:08:15;;;;;;;4.70;1.90;;;;;;;15.05;40.53;98556.45;223416;216;137140;-72
2023/03/30 11:13:40;;;;;;;6.10;2.10;;;;;;;15.17;40.40;98548.55;223392;181;146925;-72
2023/03/30 11:19:12;;;;;;;4.30;2.20;;;;;;;15.25;40.56;98532.27;223382;181;138763;-72
2023/03/30 11:24:25;;;;;;;4.50;2.20;;;;;;;15.57;40.64;98520.24;223401;182;140122;-72
2023/03/30 11:29:42;;;;;;;4.00;2.00;;;;;;;15.76;40.32;98505.34;223499;193;146744;-72
2023/03/30 11:35:00;;;;;;;5.00;2.10;;;;;;;15.90;40.05;98511.80;223434;186;138701;-72
2023/03/30 11:40:28;;;;;;;4.60;2.10;;;;;;;15.84;40.00;98508.93;223454;182;138295;-72
2023/03/30 11:45:58;;;;;;;4.90;2.10;;;;;;;15.74;40.53;98504.08;223472;209;147315;-72
2023/03/30 11:51:05;;;;;;;6.70;1.70;;;;;;;15.65;40.60;98501.16;222885;182;138927;-73
2023/03/30 11:56:16;;;;;;;3.60;1.60;;;;;;;15.60;40.84;98494.63;221476;182;137014;-74
2023/03/30 12:01:52;;;;;;;4.00;2.00;;;;;;;15.52;41.12;98488.05;223454;182;146869;-71
2023/03/30 12:07:00;;;;;;;7.10;1.70;;;;;;;15.42;41.39;98492.02;223325;181;141565;-71
2023/03/30 12:12:12;;;;;;;5.10;2.20;;;;;;;15.36;41.68;98493.73;223076;187;138073;-72
2023/03/30 12:17:15;;;;;;;6.60;2.00;;;;;;;15.32;41.96;98483.92;223548;182;147023;-72
2023/03/30 12:22:26;;;;;;;4.20;1.80;;;;;;;15.34;42.09;98475.19;221079;182;138520;-73
2023/03/30 12:27:33;;;;;;;3.40;1.70;;;;;;;15.47;42.05;98461.32;223531;183;139054;-73
2023/03/30 12:32:37;;;;;;;4.70;1.60;;;;;;;15.75;41.92;98446.60;222723;182;147150;-74
2023/03/30 12:37:46;;;;;;;4.80;1.90;;;;;;;15.92;41.78;98439.16;223365;205;138856;-73
2023/03/30 12:43:20;;;;;;;7.60;1.80;;;;;;;16.13;41.39;98428.86;222488;183;137028;-72
2023/03/30 12:49:03;;;;;;;3.90;2.00;;;;;;;16.06;41.43;98435.43;223020;182;147219;-73
2023/03/30 12:54:43;;;;;;;5.20;2.00;;;;;;;15.99;41.68;98439.19;222457;182;138312;-74
2023/03/30 13:00:08;;;;;;;8.20;1.90;;;;;;;15.96;42.05;98451.10;222433;215;137773;-74
2023/03/30 13:05:25;;;;;;;5.90;2.00;;;;;;;15.92;42.08;98455.02;223517;206;147365;-73
2023/03/30 13:10:29;;;;;;;7.60;2.30;;;;;;;15.85;42.10;98450.89;222498;215;138408;-74
2023/03/30 13:15:38;;;;;;;7.40;2.30;;;;;;;15.80;42.25;98454.54;223172;182;136854;-72
2023/03/30 13:20:44;;;;;;;9.70;2.40;;;;;;;15.73;42.37;98444.99;223306;183;147876;-72
2023/03/30 13:26:06;;;;;;;5.50;2.20;;;;;;;15.68;42.55;98456.58;222017;182;138799;-72
2023/03/30 13:31:46;;;;;;;8.20;2.20;;;;;;;15.65;42.61;98450.92;223458;183;136965;-72
2023/03/30 13:37:05;;;;;;;7.20;2.70;;;;;;;15.66;42.78;98454.05;223429;182;146975;-72
2023/03/30 13:42:11;;;;;;;8.80;2.80;;;;;;;15.67;42.85;98443.96;223491;182;138220;-72
2023/03/30 13:47:38;;;;;;;9.20;2.60;;;;;;;15.72;43.04;98440.48;223552;205;137367;-72
2023/03/30 13:52:49;;;;;;;7.90;2.30;;;;;;;15.77;43.13;98439.94;223386;182;147606;-72
2023/03/30 13:58:01;;;;;;;;;;;;;;;15.81;43.00;98439.83;223497;181;138353;-74
2023/03/30 14:03:42;;;;;;;6.40;2.30;;;;;;;15.74;42.86;98436.89;223548;183;131775;-73
2023/03/30 14:08:57;;;;;;;8.20;3.10;;;;;;;15.65;42.92;98439.52;223402;181;147041;-72
2023/03/30 14:14:04;;;;;;;8.90;2.30;;;;;;;15.53;42.89;98440.00;223375;182;142300;-72
2023/03/30 14:19:11;;;;;;;8.80;2.50;;;;;;;15.44;43.27;98444.60;223278;185;137122;-72
2023/03/30 14:24:33;;;;;;;7.00;2.60;;;;;;;15.34;43.58;98442.82;223320;182;147611;-72
2023/03/30 14:29:49;;;;;;;7.20;2.90;;;;;;;15.28;43.85;98427.15;223443;183;138501;-72
2023/03/30 14:34:53;;;;;;;7.90;2.80;;;;;;;15.24;43.89;98420.73;223367;193;137306;-72
2023/03/30 14:39:57;;;;;;;7.30;3.00;;;;;;;15.20;44.00;98414.08;223480;183;148101;-73
2023/03/30 14:45:01;;;;;;;9.20;3.10;;;;;;;15.21;44.17;98414.19;223452;182;137994;-73
2023/03/30 14:50:08;;;;;;;14.50;3.10;;;;;;;15.20;44.02;98409.22;223384;182;138038;-73
2023/03/30 14:55:22;;;;;;;12.00;3.30;;;;;;;15.21;44.26;98398.67;222397;182;146946;-75
2023/03/30 15:00:30;;;;;;;11.30;3.40;;;;;;;15.23;44.36;98403.45;223395;183;138423;-73
2023/03/30 15:05:39;;;;;;;10.50;3.40;;;;;;;15.23;44.52;98399.90;223743;181;136679;-70
2023/03/30 15:10:48;;;;;;;7.00;3.20;;;;;;;15.22;44.65;98404.27;223382;183;147113;-71
2023/03/30 15:15:53;;;;;;;8.80;3.20;;;;;;;15.21;44.80;98400.63;223437;182;138296;-72
2023/03/30 15:20:58;;;;;;;9.60;3.60;;;;;;;15.21;44.88;98395.23;223379;182;137462;-71
2023/03/30 15:26:05;;;;;;;9.50;4.10;;;;;;;15.22;45.06;98399.81;221807;183;148234;-73
2023/03/30 15:31:13;;;;;;;10.00;4.30;;;;;;;15.24;45.27;98394.48;223376;204;139414;-72
2023/03/30 15:36:21;;;;;;;13.30;4.40;;;;;;;15.25;45.57;98393.04;223414;182;136882;-72
2023/03/30 15:41:46;;;;;;;11.50;4.60;;;;;;;15.26;46.16;98389.06;223423;181;148130;-72
2023/03/30 15:46:53;;;;;;;11.90;3.70;;;;;;;15.17;47.82;98386.71;223376;182;139115;-72
2023/03/30 15:52:03;;;;;;;9.30;3.80;;;;;;;15.05;50.06;98386.50;222804;182;136759;-74
2023/03/30 15:57:09;;;;;;;10.80;3.70;;;;;;;14.89;51.77;98383.97;223434;181;147104;-73
2023/03/30 16:02:18;;;;;;;10.00;3.90;;;;;;;14.80;52.29;98378.82;223405;182;138193;-75
2023/03/30 16:07:24;;;;;;;13.10;4.10;;;;;;;14.73;53.02;98377.27;222934;182;137654;-74
2023/03/30 16:12:29;;;;;;;10.80;4.20;;;;;;;14.67;53.35;98368.84;223519;181;147289;-74
2023/03/30 16:17:33;;;;;;;12.90;4.00;;;;;;;14.61;54.01;98376.77;223469;205;139088;-74
2023/03/30 16:22:37;;;;;;;12.00;4.00;;;;;;;14.50;54.47;98368.95;223472;182;136691;-74
2023/03/30 16:27:41;;;;;;;14.60;4.70;;;;;;;14.39;54.82;98366.51;223351;182;147390;-72
2023/03/30 16:32:45;;;;;;;12.90;4.60;;;;;;;14.34;55.24;98366.97;223386;181;138826;-73
2023/03/30 16:37:48;;;;;;;15.80;4.60;;;;;;;14.32;55.43;98362.13;223352;193;136652;-72
2023/03/30 16:42:51;;;;;;;14.40;5.20;;;;;;;14.30;55.50;98357.34;223208;181;147579;-72
2023/03/30 16:47:54;;;;;;;11.60;4.60;;;;;;;14.29;55.71;98355.64;223251;193;138534;-74
2023/03/30 16:53:12;;;;;;;16.30;5.00;;;;;;;14.28;55.59;98352.52;223485;181;137424;-74
2023/03/30 16:58:16;;;;;;;14.70;4.70;;;;;;;14.25;55.23;98347.75;223576;182;148228;-74
2023/03/30 17:03:19;;;;;;;11.50;5.60;;;;;;;14.23;54.85;98344.54;223605;182;138843;-74
2023/03/30 17:08:28;;;;;;;13.80;5.30;;;;;;;14.20;54.49;98340.86;223738;182;137297;-75
2023/03/30 17:13:31;;;;;;;10.50;4.40;;;;;;;14.17;54.21;98338.81;222999;182;148474;-75
2023/03/30 17:18:35;;;;;;;13.60;3.90;;;;;;;14.09;53.72;98334.95;223665;182;138962;-73
2023/03/30 17:23:38;;;;;;;9.00;5.20;;;;;;;14.02;53.78;98338.58;223667;183;137243;-72
2023/03/30 17:28:42;;;;;;;8.40;4.20;;;;;;;13.92;54.54;98341.02;223628;182;147037;-73
2023/03/30 17:33:46;;;;;;;10.10;4.40;;;;;;;13.81;55.26;98337.33;223619;183;138195;-75
2023/03/30 17:38:51;;;;;;;12.00;4.30;;;;;;;13.70;56.41;98332.23;223629;182;138267;-78
2023/03/30 17:43:54;;;;;;;9.20;4.40;;;;;;;13.59;57.11;98333.89;223653;182;148420;-74
2023/03/30 17:48:59;;;;;;;8.80;3.90;;;;;;;13.54;57.63;98331.86;223638;182;139199;-74
2023/03/30 17:54:03;;;;;;;9.20;3.90;;;;;;;13.47;57.91;98321.14;223812;182;137555;-74
2023/03/30 17:59:10;;;;;;;6.60;4.00;;;;;;;13.38;58.36;98314.86;223670;182;146875;-73
2023/03/30 18:04:13;;;;;;;7.20;3.90;;;;;;;13.30;58.73;98319.39;223718;182;138782;-74
2023/03/30 18:09:17;;;;;;;31.50;22.20;;;;;;;13.27;59.11;98320.97;223659;183;136943;-74
2023/03/30 18:14:23;;;;;;;9.40;5.50;;;;;;;13.29;59.69;98314.70;223703;179;147372;-74
2023/03/30 18:19:27;;;;;;;6.40;3.50;;;;;;;13.35;59.63;98322.98;223734;182;139206;-74
2023/03/30 18:24:30;;;;;;;6.70;3.60;;;;;;;13.34;59.71;98326.20;223672;182;137749;-75
2023/03/30 18:29:34;;;;;;;9.70;3.60;;;;;;;13.33;59.97;98334.20;223667;182;147284;-73
2023/03/30 18:34:37;;;;;;;6.50;3.70;;;;;;;13.33;60.19;98332.52;223560;182;139315;-73
2023/03/30 18:39:43;;;;;;;10.00;3.80;;;;;;;13.31;60.31;98323.65;223549;182;136863;-75
2023/03/30 18:44:47;;;;;;;6.40;4.00;;;;;;;13.30;60.44;98310.16;223573;183;147450;-74
2023/03/30 18:49:50;;;;;;;9.60;4.20;;;;;;;13.31;60.67;98315.96;223677;182;138755;-74
2023/03/30 18:54:53;;;;;;;307.20;249.40;;;;;;;13.34;60.91;98311.59;223699;182;136906;-74
2023/03/30 18:59:57;;;;;;;13.30;8.20;;;;;;;13.45;60.88;98317.23;223742;182;147180;-75
2023/03/30 19:05:00;;;;;;;12.50;6.50;;;;;;;13.51;60.51;98319.84;223651;182;139412;-75
2023/03/30 19:10:04;;;;;;;10.90;5.80;;;;;;;13.41;60.44;98314.23;223687;182;137273;-74
2023/03/30 19:15:18;;;;;;;13.40;6.40;;;;;;;13.34;60.57;98318.91;223686;182;146451;-74
2023/03/30 19:20:24;;;;;;;14.10;6.00;;;;;;;13.32;60.72;98315.57;223584;182;138962;-73
2023/03/30 19:25:31;;;;;;;11.30;6.60;;;;;;;13.26;61.09;98312.83;223595;179;137631;-74
2023/03/30 19:30:35;;;;;;;12.50;7.20;;;;;;;13.18;61.35;98308.33;223643;182;147141;-74
2023/03/30 19:35:43;;;;;;;12.40;7.00;;;;;;;13.09;61.52;98297.31;223694;182;138865;-74
2023/03/30 19:40:47;;;;;;;14.60;7.00;;;;;;;13.01;61.63;98300.76;223709;182;137620;-73
2023/03/30 19:45:50;;;;;;;16.30;7.60;;;;;;;12.97;61.84;98297.56;223674;183;147586;-73
2023/03/30 19:50:54;;;;;;;23.80;16.90;;;;;;;12.97;62.03;98301.17;223674;182;139164;-73
2023/03/30 19:55:57;;;;;;;18.50;11.20;;;;;;;13.09;62.21;98295.73;223677;182;138059;-73
2023/03/30 20:01:05;;;;;;;14.30;7.30;;;;;;;13.17;61.87;98298.42;223638;182;149583;-72
2023/03/30 20:06:12;;;;;;;18.10;8.70;;;;;;;13.17;61.94;98297.71;223662;181;138339;-72
2023/03/30 20:11:21;;;;;;;14.40;8.30;;;;;;;13.21;61.75;98298.76;223684;183;137523;-74
2023/03/30 20:16:25;;;;;;;15.30;8.30;;;;;;;13.20;61.66;98299.23;223655;182;147322;-73
2023/03/30 20:21:30;;;;;;;15.40;7.90;;;;;;;13.19;61.65;98292.88;223709;182;138685;-76
2023/03/30 20:26:33;;;;;;;15.40;7.80;;;;;;;13.16;61.53;98284.93;223692;182;137529;-74
2023/03/30 20:31:37;;;;;;;16.60;8.30;;;;;;;13.13;61.66;98290.95;223630;182;147559;-73
2023/03/30 20:36:41;;;;;;;16.70;8.10;;;;;;;13.15;61.67;98287.04;223724;182;138264;-73
2023/03/30 20:41:45;;;;;;;15.20;8.20;;;;;;;13.09;61.76;98274.90;223748;183;136880;-75
2023/03/30 20:46:56;;;;;;;14.70;7.50;;;;;;;13.05;61.76;98279.88;223702;183;147498;-76
2023/03/30 20:52:00;;;;;;;13.10;7.50;;;;;;;13.04;61.83;98272.79;223639;182;138919;-73
2023/03/30 20:57:04;;;;;;;15.50;8.40;;;;;;;13.01;61.71;98274.78;223714;182;137753;-75
2023/03/30 21:02:10;;;;;;;15.60;8.60;;;;;;;13.05;61.62;98270.27;223116;182;147885;-76
2023/03/30 21:07:15;;;;;;;14.50;8.90;;;;;;;13.03;61.37;98268.04;223693;182;138144;-76
2023/03/30 21:12:19;;;;;;;14.30;9.20;;;;;;;13.01;61.31;98251.81;223781;182;137178;-76
2023/03/30 21:17:22;;;;;;;15.90;9.60;;;;;;;12.99;61.15;98248.23;223739;182;147641;-76
2023/03/30 21:22:28;;;;;;;15.70;10.00;;;;;;;12.98;61.12;98238.05;223727;182;139376;-77
2023/03/30 21:27:31;;;;;;;14.00;9.10;;;;;;;12.97;61.00;98244.92;223678;183;137654;-77
2023/03/30 21:32:35;;;;;;;17.40;9.20;;;;;;;12.92;60.95;98249.78;223712;182;147438;-76
2023/03/30 21:37:38;;;;;;;16.90;9.50;;;;;;;12.90;61.03;98249.08;223610;182;138988;-76
2023/03/30 21:42:42;;;;;;;17.00;9.20;;;;;;;12.89;60.93;98247.23;223676;182;137356;-77
2023/03/30 21:47:45;;;;;;;17.00;8.80;;;;;;;12.86;60.98;98242.64;223689;182;148675;-75
2023/03/30 21:52:55;;;;;;;14.90;8.30;;;;;;;12.83;60.98;98231.47;223038;182;138490;-75
2023/03/30 21:57:59;;;;;;;14.90;9.30;;;;;;;12.81;60.94;98226.12;223666;182;136950;-75
2023/03/30 22:03:02;;;;;;;19.20;9.50;;;;;;;12.78;60.99;98227.59;223823;182;147536;-75
2023/03/30 22:08:07;;;;;;;16.60;9.00;;;;;;;12.76;61.05;98224.23;223599;182;138997;-75
2023/03/30 22:13:10;;;;;;;16.50;8.90;;;;;;;12.71;61.09;98214.88;223792;182;136937;-76
2023/03/30 22:18:14;;;;;;;15.30;9.50;;;;;;;12.70;61.16;98212.09;223737;182;147466;-76
2023/03/30 22:23:18;;;;;;;15.90;8.90;;;;;;;12.68;61.22;98211.07;223669;183;138551;-76
2023/03/30 22:28:21;;;;;;;13.60;8.10;;;;;;;12.68;61.25;98212.07;223666;182;137151;-74
2023/03/30 22:33:26;;;;;;;14.70;7.60;;;;;;;12.63;61.31;98211.05;223645;183;147182;-73
2023/03/30 22:38:30;;;;;;;11.40;7.00;;;;;;;12.62;61.36;98200.73;223702;182;138410;-74
2023/03/30 22:43:34;;;;;;;10.20;6.40;;;;;;;12.59;61.38;98190.95;223748;182;137999;-73
2023/03/30 22:48:40;;;;;;;13.60;6.60;;;;;;;12.66;61.33;98191.27;223684;182;147444;-73
2023/03/30 22:53:43;;;;;;;12.20;7.10;;;;;;;12.74;61.07;98189.15;223802;182;138103;-73
2023/03/30 22:58:47;;;;;;;12.70;7.90;;;;;;;12.76;60.90;98185.20;223596;182;137583;-72
2023/03/30 23:03:52;;;;;;;12.80;7.70;;;;;;;12.78;60.80;98189.56;223655;183;147478;-73
2023/03/30 23:08:56;;;;;;;15.30;8.20;;;;;;;12.75;60.70;98187.46;223697;182;138961;-72
2023/03/30 23:14:06;;;;;;;13.50;8.40;;;;;;;12.64;60.84;98181.69;223752;182;137775;-72
2023/03/30 23:19:11;;;;;;;16.70;9.10;;;;;;;12.52;61.06;98187.94;223695;182;146465;-73
2023/03/30 23:24:14;;;;;;;16.50;9.50;;;;;;;12.41;61.51;98195.17;223646;182;139125;-74
2023/03/30 23:29:18;;;;;;;15.10;8.80;;;;;;;12.34;61.81;98201.96;223854;182;137197;-74
2023/03/30 23:34:22;;;;;;;16.00;10.30;;;;;;;12.29;61.97;98201.61;223663;182;147605;-73
2023/03/30 23:39:26;;;;;;;19.00;10.70;;;;;;;12.29;62.09;98200.25;223669;183;138724;-73
2023/03/30 23:44:30;;;;;;;15.20;9.60;;;;;;;12.28;62.24;98200.86;223672;183;137138;-73
2023/03/30 23:49:33;;;;;;;18.50;9.90;;;;;;;12.26;62.37;98194.95;223691;182;146920;-73
2023/03/30 23:54:39;;;;;;;13.40;8.30;;;;;;;12.25;62.49;98201.77;223732;183;138844;-72
2023/03/30 23:59:42;;;;;;;12.60;7.90;;;;;;;12.27;62.53;98205.16;223811;182;137910;-73
